Scroll down
FLIGHT INFORMATION
Southern Air

SOO9777

At Arrival Gate

KMSP
 KORD
DATE: 2021-01-31
GATE: 31
GATE DEPARTURE: 16:18
TAKEOFF: 16:28
DATE: 2021-01-31
GATE:  -
LANDING: 17:20
GATE ARRIVAL: 17:32
FLIGHT DATA
Crew: 
Speed: 
476 kts
Altitude: 
31,023 ft
Stage Length: 
289.8 nm
Block Time: 
1.2 hrs
Flight Time: 
0.9 hrs
Fuel Used: 
14,048 lb
Cleared Route: KMSP RST ZZIPR KORD
TRACK DATA
50,000 ft 1,000 kts
AIRCRAFT INFO AND CUMULATIVE STATS
Aircraft Type: 
B77LF
Registration: 
SELCAL: 
PSBM
MSN/LN: 
37989 / 1011
Operator: 
Total Flights: 
6
Total Block Time: 
23.3 hrs
Total Flight Time: 
21.4 hrs
Total Fuel Used: 
373,573 lb
DATALINK LOG | Newest first | Current as of: 2022-05-16 08:04:57
LABEL SEQUENCE CONTENT Dn/Up
QD293117:32 17.8▼ Dn
QC170317:20▼ Dn
2U3816KORD 311451Z 06013KT 3/4SM R10L/3500V5000FT -SN BR BKN007 OVC012 M01/M02 A2986 RMK AO2 SLP118 DRSN P0001 60001 T10061022 51016▲ Up
2S3816KORD▼ Dn
QB300916:28▼ Dn
QA200016:18 31.9▼ Dn
A30759CLEARED TO KORD VIA RST1 RST ZZIPR FYTTE6. SQUAWK 7364.▲ Up
2U0758KORD 311451Z 06013KT 3/4SM R10L/3500V5000FT -SN BR BKN007 OVC012 M01/M02 A2986 RMK AO2 SLP118 DRSN P0001 60001 T10061022 51016▲ Up
2U0757KMSP 311453Z 01006KT 3SM -SN BR FEW012 BKN036 OVC047 M02/M03 A3017 RMK AO2 SNE00B37 SLP229 P0000 60000 T10171033 51019▲ Up
2U0757KDTW 311453Z 06013G23KT 5SM -SN OVC010 M02/M05 A2997 RMK AO2 SNB41 SLP155 P0000 60002 T10221050 58012 $▲ Up
2S0757KMSP KORD KDTW▼ Dn
Q00649[LINK ACK]▲ Up
Q00649[LINK TEST]▼ Dn


AIRCRAFT HISTORY
FLIGHT DATE FLIGHT NO. ORIGIN DESTINATION CLEARED ROUTE BLOCK TIME FLIGHT TIME FUEL USED PILOT
2021-01-31SOO9777KMSP KORD KMSP RST ZZIPR KORD1.2 hrs0.9 hrs14,048 lbAllan Burek
2021-01-23SOO519KMCI KMSP KMCI MCI JDOGG TONCE ROKKK FUZEE RRAZZ KBEEE DEMLL NITZR WRSAW DAHRL GDNEE ELLKO SAVVG GREAK DOLEE ZESTY RW12R1.7 hrs1.3 hrs23,009 lbChemtrails
2021-01-09SOO109KOAK KMCI KOAK SYRAH JSICA MLF HVE BDROC HBU EMP KMCI3.1 hrs2.8 hrs45,304 lbAaron Buchanan
2021-01-01SOO519SPJC KOAK SPJC JC921 JC923 DIMAP BURVO JC917 ISREN REBAN MULON AMERO SUDKO MIGIK ESDUX PUPES ARTOM VODIR POGAM NOTOS YEDRA AMUSI ACA ALANS AGLON NUXCO OLULA PEKSI ALIPO UPN ONGEL EBDEG GDL TEILA SEDEM AMAVO RADAP KEDMA BRISA USDAD MZT GAMOS MELBO DANOP CUL BOKTA LERIV KIPAX KEBEX EMANI CEN USBEN SEBEK MIURA HMO OMTIB LIDUK PPE AMUDI MXL PXN KARNN BORED BUSHY SUNOL NIXDE RW28R9 hrs8.7 hrs157,052 lbChemtrails
2020-12-11SOO1211SVMI SPJC 3.9 hrs3.6 hrs60,789 lbAaron Buchanan
2020-12-06SOO833KCVG SVMI 4.4 hrs4.1 hrs73,371 lbAaron Buchanan